createdAt,value
2022-09-14T00:01:49.219Z,100.00
2022-09-14T00:06:52.714Z,100.00
2022-09-14T00:11:56.598Z,100.00
2022-09-14T00:17:00.023Z,100.00
2022-09-14T00:22:06.215Z,100.00
2022-09-14T00:27:10.939Z,100.00
2022-09-14T00:32:14.186Z,100.00
2022-09-14T00:37:17.465Z,100.00
2022-09-14T00:42:21.644Z,100.00
2022-09-14T00:47:26.603Z,100.00
2022-09-14T00:52:41.055Z,100.00
2022-09-14T00:57:47.941Z,100.00
2022-09-14T01:02:52.442Z,100.00
2022-09-14T01:08:09.131Z,100.00
2022-09-14T01:13:34.434Z,100.00
2022-09-14T01:18:45.245Z,100.00
2022-09-14T01:23:51.267Z,100.00
2022-09-14T01:28:57.294Z,100.00
2022-09-14T01:34:16.630Z,100.00
2022-09-14T01:39:23.647Z,100.00
2022-09-14T01:44:34.819Z,100.00
2022-09-14T01:49:44.498Z,100.00
2022-09-14T01:54:57.503Z,100.00
2022-09-14T02:00:12.383Z,100.00
2022-09-14T02:05:33.758Z,100.00
2022-09-14T02:10:38.017Z,100.00
2022-09-14T02:15:41.471Z,100.00
2022-09-14T02:20:54.224Z,100.00
2022-09-14T02:25:58.927Z,100.00
2022-09-14T02:31:21.341Z,100.00
2022-09-14T02:36:44.981Z,100.00
2022-09-14T02:41:57.212Z,100.00
2022-09-14T02:47:26.285Z,100.00
2022-09-14T02:52:37.575Z,100.00
2022-09-14T02:58:01.171Z,100.00
2022-09-14T03:03:09.845Z,100.00
2022-09-14T03:08:13.494Z,100.00
2022-09-14T03:13:16.823Z,100.00
2022-09-14T03:18:20.169Z,100.00
2022-09-14T03:23:23.713Z,100.00
2022-09-14T03:28:26.929Z,100.00
2022-09-14T03:33:30.626Z,100.00
2022-09-14T03:38:33.807Z,100.00
2022-09-14T03:43:37.479Z,100.00
2022-09-14T03:48:41.238Z,100.00
2022-09-14T03:53:45.560Z,100.00
2022-09-14T03:58:50.210Z,100.00
2022-09-14T04:03:53.520Z,100.00
2022-09-14T04:08:56.923Z,100.00
2022-09-14T04:14:05.073Z,100.00
2022-09-14T04:19:09.498Z,100.00
2022-09-14T04:24:15.502Z,100.00
2022-09-14T04:29:19.451Z,100.00
2022-09-14T04:34:22.977Z,100.00
2022-09-14T04:39:26.670Z,100.00
2022-09-14T04:44:33.168Z,100.00
2022-09-14T04:49:36.470Z,100.00
2022-09-14T04:54:39.983Z,100.00
2022-09-14T04:59:46.641Z,100.00
2022-09-14T05:04:51.174Z,100.00
2022-09-14T05:09:58.261Z,100.00
2022-09-14T05:15:01.792Z,100.00
2022-09-14T05:20:05.804Z,100.00
2022-09-14T05:25:09.838Z,100.00
2022-09-14T05:30:13.891Z,100.00
2022-09-14T05:35:40.663Z,100.00
2022-09-14T05:41:09.033Z,100.00
2022-09-14T05:46:31.692Z,100.00
2022-09-14T05:51:35.818Z,100.00
2022-09-14T05:56:41.854Z,100.00
2022-09-14T06:02:17.973Z,100.00
2022-09-14T06:07:21.993Z,97.11
2022-09-14T06:12:27.800Z,90.67
2022-09-14T06:17:31.673Z,89.62
2022-09-14T06:22:35.096Z,86.01
2022-09-14T06:27:38.621Z,81.49
2022-09-14T06:32:45.769Z,76.14
2022-09-14T06:37:53.478Z,71.72
2022-09-14T06:43:02.805Z,67.44
2022-09-14T06:48:09.239Z,62.38
2022-09-14T06:53:12.549Z,59.40
2022-09-14T06:58:15.767Z,57.40
2022-09-14T07:03:19.993Z,56.85
2022-09-14T07:08:23.634Z,58.27
2022-09-14T07:13:28.535Z,58.06
2022-09-14T07:18:35.773Z,59.17
2022-09-14T07:23:42.192Z,60.77
2022-09-14T07:28:48.986Z,62.87
2022-09-14T07:33:55.503Z,60.30
2022-09-14T07:39:02.663Z,59.80
2022-09-14T07:44:08.591Z,59.60
2022-09-14T07:49:13.179Z,60.76
2022-09-14T07:54:18.266Z,60.95
2022-09-14T07:59:35.504Z,60.42
2022-09-14T08:04:39.692Z,57.89
2022-09-14T08:09:43.026Z,56.58
2022-09-14T08:14:47.086Z,58.41
2022-09-14T08:19:52.587Z,58.80
2022-09-14T08:24:55.711Z,58.39
2022-09-14T08:29:58.877Z,58.11
2022-09-14T08:35:02.898Z,58.89
2022-09-14T08:40:06.671Z,58.60
2022-09-14T08:45:15.421Z,58.06
2022-09-14T08:50:22.293Z,58.40
2022-09-14T08:55:34.745Z,58.92
2022-09-14T09:00:42.191Z,59.66
2022-09-14T09:06:15.638Z,60.69
2022-09-14T09:11:23.470Z,61.11
2022-09-14T09:16:29.170Z,61.53
2022-09-14T09:21:39.147Z,60.07
2022-09-14T09:26:43.434Z,57.45
2022-09-14T09:31:56.334Z,56.35
2022-09-14T09:37:01.169Z,57.84
2022-09-14T09:42:13.575Z,58.86
2022-09-14T09:47:16.808Z,56.89
2022-09-14T09:52:19.954Z,55.60
2022-09-14T09:57:36.318Z,55.14
2022-09-14T10:02:41.440Z,53.90
2022-09-14T10:07:49.714Z,53.37
2022-09-14T10:12:57.521Z,52.11
2022-09-14T10:18:14.166Z,53.06
2022-09-14T10:23:20.273Z,53.50
2022-09-14T10:28:29.530Z,53.77
2022-09-14T10:33:33.699Z,53.17
2022-09-14T10:38:53.172Z,52.99
2022-09-14T10:44:24.431Z,53.96
2022-09-14T10:49:45.002Z,53.81
2022-09-14T10:54:58.911Z,54.25
2022-09-14T11:00:15.056Z,54.41
2022-09-14T11:05:27.542Z,55.15
2022-09-14T11:10:52.674Z,56.35
2022-09-14T11:16:17.860Z,57.82
2022-09-14T11:21:44.216Z,58.95
2022-09-14T11:26:56.384Z,60.24
2022-09-14T11:32:22.564Z,60.97
2022-09-14T11:37:50.867Z,62.05
2022-09-14T11:43:15.853Z,63.12
2022-09-14T11:48:51.736Z,62.53
2022-09-14T11:53:55.035Z,61.84
2022-09-14T11:59:01.473Z,61.75
2022-09-14T12:04:06.845Z,59.89
2022-09-14T12:09:24.803Z,58.58
2022-09-14T12:14:40.919Z,57.37
2022-09-14T12:19:49.786Z,58.10
2022-09-14T12:25:04.686Z,58.31
2022-09-14T12:30:40.417Z,58.36
2022-09-14T12:35:46.718Z,58.62
2022-09-14T12:40:50.889Z,57.90
2022-09-14T12:46:01.279Z,57.40
2022-09-14T12:51:05.862Z,58.20
2022-09-14T12:56:23.908Z,57.91
2022-09-14T13:01:32.085Z,57.78
2022-09-14T13:06:44.002Z,58.10
2022-09-14T13:11:53.489Z,57.87
2022-09-14T13:16:59.780Z,56.90
2022-09-14T13:22:03.442Z,55.77
2022-09-14T13:27:17.370Z,57.11
2022-09-14T13:32:24.226Z,58.00
2022-09-14T13:37:27.719Z,57.40
2022-09-14T13:42:30.995Z,57.45
2022-09-14T13:47:39.512Z,58.14
2022-09-14T13:53:01.405Z,58.60
2022-09-14T13:58:07.240Z,58.39
2022-09-14T14:03:24.812Z,58.57
2022-09-14T14:08:38.357Z,58.59
2022-09-14T14:13:41.822Z,59.21
2022-09-14T14:18:59.003Z,58.71
2022-09-14T14:24:27.277Z,58.66
2022-09-14T14:29:30.949Z,58.58
2022-09-14T14:34:34.304Z,58.41
2022-09-14T14:39:37.702Z,59.09
2022-09-14T14:44:42.918Z,59.98
2022-09-14T14:49:47.310Z,60.35
2022-09-14T14:54:50.555Z,60.74
2022-09-14T14:59:53.719Z,61.57
2022-09-14T15:04:57.227Z,62.28
2022-09-14T15:10:00.789Z,62.74
2022-09-14T15:15:04.947Z,63.17
2022-09-14T15:20:10.204Z,63.25
2022-09-14T15:25:16.009Z,63.40
2022-09-14T15:30:19.467Z,63.98
2022-09-14T15:35:26.028Z,63.90
2022-09-14T15:40:29.536Z,64.17
2022-09-14T15:45:32.924Z,64.45
2022-09-14T15:50:42.054Z,64.42
2022-09-14T15:55:45.921Z,64.65
2022-09-14T16:00:49.277Z,65.03
2022-09-14T16:05:53.071Z,65.43
2022-09-14T16:11:02.328Z,65.77
2022-09-14T16:16:08.002Z,66.14
2022-09-14T16:21:19.269Z,66.61
2022-09-14T16:26:29.064Z,67.10
2022-09-14T16:31:37.808Z,67.34
2022-09-14T16:36:42.562Z,67.55
2022-09-14T16:41:46.795Z,68.03
2022-09-14T16:46:52.419Z,68.40
2022-09-14T16:52:00.842Z,69.22
2022-09-14T16:57:04.257Z,69.85
2022-09-14T17:02:11.899Z,71.10
2022-09-14T17:07:15.846Z,71.93
2022-09-14T17:12:19.135Z,72.85
2022-09-14T17:17:26.356Z,73.86
2022-09-14T17:22:29.516Z,74.68
2022-09-14T17:27:32.832Z,75.56
2022-09-14T17:32:36.406Z,76.52
2022-09-14T17:37:39.636Z,78.63
2022-09-14T17:42:43.061Z,79.05
2022-09-14T17:47:46.841Z,79.29
2022-09-14T17:52:51.544Z,78.95
2022-09-14T17:57:57.011Z,79.17
2022-09-14T18:03:00.368Z,79.36
2022-09-14T18:08:04.132Z,78.94
2022-09-14T18:13:07.493Z,79.39
2022-09-14T18:18:11.137Z,79.37
2022-09-14T18:23:14.475Z,79.05
2022-09-14T18:28:17.989Z,79.20
2022-09-14T18:33:21.424Z,79.39
2022-09-14T18:38:30.553Z,79.66
2022-09-14T18:43:35.587Z,79.55
2022-09-14T18:48:41.096Z,79.77
2022-09-14T18:53:44.452Z,79.58
2022-09-14T18:58:48.259Z,79.89
2022-09-14T19:03:52.358Z,80.04
2022-09-14T19:08:55.856Z,80.07
2022-09-14T19:14:09.607Z,80.26
2022-09-14T19:19:15.623Z,80.45
2022-09-14T19:24:19.213Z,80.55
2022-09-14T19:29:24.262Z,80.90
2022-09-14T19:34:29.437Z,80.91
2022-09-14T19:39:32.791Z,81.52
2022-09-14T19:44:36.193Z,81.94
2022-09-14T19:49:39.426Z,82.50
2022-09-14T19:54:42.717Z,83.13
2022-09-14T19:59:46.534Z,83.61
2022-09-14T20:04:49.759Z,84.33
2022-09-14T20:09:53.743Z,84.41
2022-09-14T20:14:56.963Z,84.69
2022-09-14T20:20:00.093Z,84.72
2022-09-14T20:25:04.166Z,84.83
2022-09-14T20:30:09.001Z,85.04
2022-09-14T20:35:12.363Z,85.12
2022-09-14T20:40:18.524Z,85.59
2022-09-14T20:45:21.731Z,86.03
2022-09-14T20:50:27.292Z,86.12
2022-09-14T20:55:33.581Z,85.84
2022-09-14T21:00:36.886Z,85.68
2022-09-14T21:05:40.460Z,85.77
2022-09-14T21:10:43.675Z,85.67
2022-09-14T21:15:49.177Z,85.91
2022-09-14T21:20:52.381Z,85.72
2022-09-14T21:25:57.089Z,85.54
2022-09-14T21:31:09.198Z,85.75
2022-09-14T21:36:22.367Z,85.74
2022-09-14T21:41:28.057Z,86.06
2022-09-14T21:46:32.580Z,85.89
2022-09-14T21:51:37.419Z,85.79
2022-09-14T21:56:43.203Z,85.97
2022-09-14T22:01:48.031Z,86.13
2022-09-14T22:06:52.108Z,86.11
2022-09-14T22:11:56.602Z,86.11
2022-09-14T22:16:59.924Z,86.30
2022-09-14T22:22:04.067Z,86.18
2022-09-14T22:27:13.203Z,86.36
2022-09-14T22:32:16.465Z,86.24
2022-09-14T22:37:19.758Z,86.46
2022-09-14T22:42:24.207Z,86.55
2022-09-14T22:47:27.531Z,86.84
2022-09-14T22:52:30.743Z,87.29
2022-09-14T22:57:34.358Z,87.87
2022-09-14T23:02:37.534Z,87.84
2022-09-14T23:07:40.753Z,87.91
2022-09-14T23:12:44.005Z,87.83
2022-09-14T23:17:51.911Z,87.62
2022-09-14T23:22:55.875Z,87.57
2022-09-14T23:27:59.171Z,87.58
2022-09-14T23:33:02.676Z,88.09
2022-09-14T23:38:08.412Z,88.01
2022-09-14T23:43:12.014Z,88.06
2022-09-14T23:48:16.164Z,88.49
2022-09-14T23:53:19.332Z,88.81
2022-09-14T23:58:23.342Z,88.57
